sensor_id;sensor_type;location;lat;lon;timestamp;P1;durP1;ratioP1;P2;durP2;ratioP2
19436;SDS011;9854;50.968;4.168;2023-10-13T00:02:01;16.98;;;6.40;;
19436;SDS011;9854;50.968;4.168;2023-10-13T00:04:29;11.60;;;6.47;;
19436;SDS011;9854;50.968;4.168;2023-10-13T00:07:00;11.90;;;6.18;;
19436;SDS011;9854;50.968;4.168;2023-10-13T00:09:27;13.65;;;6.25;;
19436;SDS011;9854;50.968;4.168;2023-10-13T00:12:02;14.75;;;6.63;;
19436;SDS011;9854;50.968;4.168;2023-10-13T00:14:38;17.88;;;6.63;;
19436;SDS011;9854;50.968;4.168;2023-10-13T00:17:06;14.85;;;6.28;;
19436;SDS011;9854;50.968;4.168;2023-10-13T00:19:44;17.65;;;7.25;;
19436;SDS011;9854;50.968;4.168;2023-10-13T00:22:17;13.93;;;6.40;;
19436;SDS011;9854;50.968;4.168;2023-10-13T00:24:44;10.63;;;6.38;;
19436;SDS011;9854;50.968;4.168;2023-10-13T00:27:14;14.07;;;5.70;;
19436;SDS011;9854;50.968;4.168;2023-10-13T00:32:48;9.35;;;5.80;;
19436;SDS011;9854;50.968;4.168;2023-10-13T00:35:25;19.33;;;6.53;;
19436;SDS011;9854;50.968;4.168;2023-10-13T00:38:01;10.55;;;5.97;;
19436;SDS011;9854;50.968;4.168;2023-10-13T00:40:38;16.65;;;6.32;;
19436;SDS011;9854;50.968;4.168;2023-10-13T00:43:04;15.88;;;7.28;;
19436;SDS011;9854;50.968;4.168;2023-10-13T00:45:52;17.75;;;7.43;;
19436;SDS011;9854;50.968;4.168;2023-10-13T00:48:26;16.25;;;7.35;;
19436;SDS011;9854;50.968;4.168;2023-10-13T00:50:57;16.98;;;7.55;;
19436;SDS011;9854;50.968;4.168;2023-10-13T00:53:34;13.93;;;8.15;;
19436;SDS011;9854;50.968;4.168;2023-10-13T00:56:02;22.25;;;9.77;;
19436;SDS011;9854;50.968;4.168;2023-10-13T00:58:35;21.70;;;11.02;;
19436;SDS011;9854;50.968;4.168;2023-10-13T01:01:04;18.27;;;11.18;;
19436;SDS011;9854;50.968;4.168;2023-10-13T01:03:54;24.42;;;11.57;;
19436;SDS011;9854;50.968;4.168;2023-10-13T01:06:24;21.27;;;12.07;;
19436;SDS011;9854;50.968;4.168;2023-10-13T01:08:56;23.48;;;13.05;;
19436;SDS011;9854;50.968;4.168;2023-10-13T01:11:35;24.77;;;14.32;;
19436;SDS011;9854;50.968;4.168;2023-10-13T01:14:02;29.25;;;14.40;;
19436;SDS011;9854;50.968;4.168;2023-10-13T01:16:29;31.85;;;15.02;;
19436;SDS011;9854;50.968;4.168;2023-10-13T01:18:55;32.65;;;16.58;;
19436;SDS011;9854;50.968;4.168;2023-10-13T01:21:24;33.50;;;16.77;;
19436;SDS011;9854;50.968;4.168;2023-10-13T01:23:53;30.58;;;18.00;;
19436;SDS011;9854;50.968;4.168;2023-10-13T01:26:19;33.13;;;19.50;;
19436;SDS011;9854;50.968;4.168;2023-10-13T01:28:51;35.13;;;20.48;;
19436;SDS011;9854;50.968;4.168;2023-10-13T01:31:21;37.13;;;21.70;;
19436;SDS011;9854;50.968;4.168;2023-10-13T01:33:52;36.03;;;21.05;;
19436;SDS011;9854;50.968;4.168;2023-10-13T01:36:22;35.03;;;21.50;;
19436;SDS011;9854;50.968;4.168;2023-10-13T01:38:49;41.50;;;23.17;;
19436;SDS011;9854;50.968;4.168;2023-10-13T01:41:20;39.50;;;24.75;;
19436;SDS011;9854;50.968;4.168;2023-10-13T01:43:47;58.35;;;25.58;;
19436;SDS011;9854;50.968;4.168;2023-10-13T01:46:13;44.25;;;26.92;;
19436;SDS011;9854;50.968;4.168;2023-10-13T01:48:40;53.45;;;28.05;;
19436;SDS011;9854;50.968;4.168;2023-10-13T01:51:08;57.03;;;28.77;;
19436;SDS011;9854;50.968;4.168;2023-10-13T01:53:37;59.13;;;28.90;;
19436;SDS011;9854;50.968;4.168;2023-10-13T01:56:04;54.65;;;28.55;;
19436;SDS011;9854;50.968;4.168;2023-10-13T01:58:35;52.28;;;28.63;;
19436;SDS011;9854;50.968;4.168;2023-10-13T02:01:07;56.30;;;29.10;;
19436;SDS011;9854;50.968;4.168;2023-10-13T02:03:34;50.47;;;27.33;;
19436;SDS011;9854;50.968;4.168;2023-10-13T02:06:06;47.42;;;27.55;;
19436;SDS011;9854;50.968;4.168;2023-10-13T02:08:32;49.17;;;28.13;;
19436;SDS011;9854;50.968;4.168;2023-10-13T02:10:58;46.67;;;25.92;;
19436;SDS011;9854;50.968;4.168;2023-10-13T02:13:26;44.28;;;24.67;;
19436;SDS011;9854;50.968;4.168;2023-10-13T02:15:54;44.13;;;23.13;;
19436;SDS011;9854;50.968;4.168;2023-10-13T02:18:29;35.92;;;23.33;;
19436;SDS011;9854;50.968;4.168;2023-10-13T02:21:07;37.70;;;22.58;;
19436;SDS011;9854;50.968;4.168;2023-10-13T02:23:39;47.58;;;23.48;;
19436;SDS011;9854;50.968;4.168;2023-10-13T02:26:24;36.33;;;21.23;;
19436;SDS011;9854;50.968;4.168;2023-10-13T02:29:00;37.53;;;19.40;;
19436;SDS011;9854;50.968;4.168;2023-10-13T02:31:32;33.97;;;20.17;;
19436;SDS011;9854;50.968;4.168;2023-10-13T02:33:59;30.08;;;19.40;;
19436;SDS011;9854;50.968;4.168;2023-10-13T02:36:26;34.28;;;19.05;;
19436;SDS011;9854;50.968;4.168;2023-10-13T02:39:10;32.15;;;19.05;;
19436;SDS011;9854;50.968;4.168;2023-10-13T02:41:38;33.13;;;18.67;;
19436;SDS011;9854;50.968;4.168;2023-10-13T02:44:05;33.00;;;18.38;;
19436;SDS011;9854;50.968;4.168;2023-10-13T02:46:32;37.53;;;18.08;;
19436;SDS011;9854;50.968;4.168;2023-10-13T02:49:01;34.72;;;17.52;;
19436;SDS011;9854;50.968;4.168;2023-10-13T02:51:36;33.20;;;17.70;;
19436;SDS011;9854;50.968;4.168;2023-10-13T02:54:02;31.98;;;17.15;;
19436;SDS011;9854;50.968;4.168;2023-10-13T02:56:35;23.92;;;16.58;;
19436;SDS011;9854;50.968;4.168;2023-10-13T02:59:01;32.55;;;17.80;;
19436;SDS011;9854;50.968;4.168;2023-10-13T03:01:33;33.40;;;18.30;;
19436;SDS011;9854;50.968;4.168;2023-10-13T03:04:00;30.83;;;17.98;;
19436;SDS011;9854;50.968;4.168;2023-10-13T03:06:28;33.58;;;17.02;;
19436;SDS011;9854;50.968;4.168;2023-10-13T03:09:00;28.75;;;16.92;;
19436;SDS011;9854;50.968;4.168;2023-10-13T03:11:49;28.02;;;16.40;;
19436;SDS011;9854;50.968;4.168;2023-10-13T03:14:20;29.60;;;17.15;;
19436;SDS011;9854;50.968;4.168;2023-10-13T03:16:59;27.17;;;16.45;;
19436;SDS011;9854;50.968;4.168;2023-10-13T03:19:42;31.30;;;16.63;;
19436;SDS011;9854;50.968;4.168;2023-10-13T03:22:20;36.08;;;17.13;;
19436;SDS011;9854;50.968;4.168;2023-10-13T03:24:55;29.15;;;16.55;;
19436;SDS011;9854;50.968;4.168;2023-10-13T03:27:25;29.08;;;17.02;;
19436;SDS011;9854;50.968;4.168;2023-10-13T03:30:05;32.50;;;16.13;;
19436;SDS011;9854;50.968;4.168;2023-10-13T03:32:38;27.48;;;16.35;;
19436;SDS011;9854;50.968;4.168;2023-10-13T03:35:08;25.48;;;15.60;;
19436;SDS011;9854;50.968;4.168;2023-10-13T03:37:57;31.23;;;15.80;;
19436;SDS011;9854;50.968;4.168;2023-10-13T03:40:23;29.63;;;15.57;;
19436;SDS011;9854;50.968;4.168;2023-10-13T03:45:38;23.52;;;14.75;;
19436;SDS011;9854;50.968;4.168;2023-10-13T03:48:08;28.80;;;15.50;;
19436;SDS011;9854;50.968;4.168;2023-10-13T03:50:36;23.25;;;13.80;;
19436;SDS011;9854;50.968;4.168;2023-10-13T03:53:10;22.85;;;13.93;;
19436;SDS011;9854;50.968;4.168;2023-10-13T03:55:38;28.27;;;15.13;;
19436;SDS011;9854;50.968;4.168;2023-10-13T03:58:04;29.40;;;14.10;;
19436;SDS011;9854;50.968;4.168;2023-10-13T04:00:30;25.52;;;13.70;;
19436;SDS011;9854;50.968;4.168;2023-10-13T04:02:56;24.50;;;13.43;;
19436;SDS011;9854;50.968;4.168;2023-10-13T04:05:41;23.98;;;13.13;;
19436;SDS011;9854;50.968;4.168;2023-10-13T04:08:09;22.08;;;12.60;;
19436;SDS011;9854;50.968;4.168;2023-10-13T04:10:47;28.25;;;12.88;;
19436;SDS011;9854;50.968;4.168;2023-10-13T04:13:16;24.30;;;12.80;;
19436;SDS011;9854;50.968;4.168;2023-10-13T04:16:00;22.83;;;12.57;;
19436;SDS011;9854;50.968;4.168;2023-10-13T04:18:45;20.15;;;12.02;;
19436;SDS011;9854;50.968;4.168;2023-10-13T04:21:19;29.83;;;12.40;;
19436;SDS011;9854;50.968;4.168;2023-10-13T04:24:06;26.20;;;11.93;;
19436;SDS011;9854;50.968;4.168;2023-10-13T04:26:51;27.30;;;12.73;;
19436;SDS011;9854;50.968;4.168;2023-10-13T04:29:36;30.83;;;13.55;;
19436;SDS011;9854;50.968;4.168;2023-10-13T04:32:21;24.42;;;12.27;;
19436;SDS011;9854;50.968;4.168;2023-10-13T04:35:19;28.80;;;12.15;;
19436;SDS011;9854;50.968;4.168;2023-10-13T04:37:49;27.80;;;12.07;;
19436;SDS011;9854;50.968;4.168;2023-10-13T04:40:26;22.73;;;11.65;;
19436;SDS011;9854;50.968;4.168;2023-10-13T04:43:00;26.80;;;10.80;;
19436;SDS011;9854;50.968;4.168;2023-10-13T04:45:52;23.25;;;9.77;;
19436;SDS011;9854;50.968;4.168;2023-10-13T04:48:20;34.55;;;10.45;;
19436;SDS011;9854;50.968;4.168;2023-10-13T04:50:49;22.08;;;10.40;;
19436;SDS011;9854;50.968;4.168;2023-10-13T04:53:37;23.70;;;9.38;;
19436;SDS011;9854;50.968;4.168;2023-10-13T04:56:21;29.20;;;10.35;;
19436;SDS011;9854;50.968;4.168;2023-10-13T04:59:22;17.63;;;9.65;;
19436;SDS011;9854;50.968;4.168;2023-10-13T05:02:23;27.40;;;10.32;;
19436;SDS011;9854;50.968;4.168;2023-10-13T05:05:05;22.05;;;9.73;;
19436;SDS011;9854;50.968;4.168;2023-10-13T05:07:36;23.73;;;10.40;;
19436;SDS011;9854;50.968;4.168;2023-10-13T05:10:21;21.20;;;9.25;;
19436;SDS011;9854;50.968;4.168;2023-10-13T05:13:05;24.50;;;10.13;;
19436;SDS011;9854;50.968;4.168;2023-10-13T05:15:49;29.33;;;9.75;;
19436;SDS011;9854;50.968;4.168;2023-10-13T05:18:34;26.90;;;10.75;;
19436;SDS011;9854;50.968;4.168;2023-10-13T05:21:19;28.38;;;10.48;;
19436;SDS011;9854;50.968;4.168;2023-10-13T05:24:04;32.42;;;11.13;;
19436;SDS011;9854;50.968;4.168;2023-10-13T05:26:49;26.33;;;10.52;;
19436;SDS011;9854;50.968;4.168;2023-10-13T05:29:34;27.10;;;10.98;;
19436;SDS011;9854;50.968;4.168;2023-10-13T05:32:22;30.73;;;11.52;;
19436;SDS011;9854;50.968;4.168;2023-10-13T05:35:06;30.10;;;10.13;;
19436;SDS011;9854;50.968;4.168;2023-10-13T05:37:51;23.85;;;10.35;;
19436;SDS011;9854;50.968;4.168;2023-10-13T05:40:35;29.60;;;10.55;;
19436;SDS011;9854;50.968;4.168;2023-10-13T05:43:19;29.98;;;10.80;;
19436;SDS011;9854;50.968;4.168;2023-10-13T05:46:04;31.00;;;10.20;;
19436;SDS011;9854;50.968;4.168;2023-10-13T05:49:01;35.88;;;11.27;;
19436;SDS011;9854;50.968;4.168;2023-10-13T05:51:31;23.85;;;10.55;;
19436;SDS011;9854;50.968;4.168;2023-10-13T05:54:00;35.35;;;10.20;;
19436;SDS011;9854;50.968;4.168;2023-10-13T05:56:38;26.42;;;10.50;;
19436;SDS011;9854;50.968;4.168;2023-10-13T05:59:29;27.60;;;11.13;;
19436;SDS011;9854;50.968;4.168;2023-10-13T06:02:15;32.13;;;9.95;;
19436;SDS011;9854;50.968;4.168;2023-10-13T06:05:07;30.90;;;11.38;;
19436;SDS011;9854;50.968;4.168;2023-10-13T06:07:52;30.73;;;12.25;;
19436;SDS011;9854;50.968;4.168;2023-10-13T06:10:38;25.83;;;11.90;;
19436;SDS011;9854;50.968;4.168;2023-10-13T06:13:22;35.05;;;12.50;;
19436;SDS011;9854;50.968;4.168;2023-10-13T06:16:14;32.72;;;13.70;;
19436;SDS011;9854;50.968;4.168;2023-10-13T06:18:59;39.17;;;14.75;;
19436;SDS011;9854;50.968;4.168;2023-10-13T06:21:44;36.45;;;14.45;;
19436;SDS011;9854;50.968;4.168;2023-10-13T06:24:28;33.55;;;13.95;;
19436;SDS011;9854;50.968;4.168;2023-10-13T06:27:16;26.58;;;12.95;;
19436;SDS011;9854;50.968;4.168;2023-10-13T06:30:01;37.10;;;14.15;;
19436;SDS011;9854;50.968;4.168;2023-10-13T06:32:29;31.77;;;11.52;;
19436;SDS011;9854;50.968;4.168;2023-10-13T06:34:56;23.95;;;12.32;;
19436;SDS011;9854;50.968;4.168;2023-10-13T06:37:23;29.95;;;11.15;;
19436;SDS011;9854;50.968;4.168;2023-10-13T06:39:50;26.73;;;11.30;;
19436;SDS011;9854;50.968;4.168;2023-10-13T06:42:16;31.00;;;10.82;;
19436;SDS011;9854;50.968;4.168;2023-10-13T06:44:44;25.08;;;10.35;;
19436;SDS011;9854;50.968;4.168;2023-10-13T06:47:11;26.10;;;9.60;;
19436;SDS011;9854;50.968;4.168;2023-10-13T06:49:41;23.85;;;8.75;;
19436;SDS011;9854;50.968;4.168;2023-10-13T06:52:09;26.05;;;8.95;;
19436;SDS011;9854;50.968;4.168;2023-10-13T06:54:38;23.45;;;8.88;;
19436;SDS011;9854;50.968;4.168;2023-10-13T06:57:07;21.92;;;8.95;;
19436;SDS011;9854;50.968;4.168;2023-10-13T06:59:39;20.73;;;8.13;;
19436;SDS011;9854;50.968;4.168;2023-10-13T07:02:05;24.48;;;7.80;;
19436;SDS011;9854;50.968;4.168;2023-10-13T07:04:34;21.05;;;7.85;;
19436;SDS011;9854;50.968;4.168;2023-10-13T07:07:04;19.30;;;6.63;;
19436;SDS011;9854;50.968;4.168;2023-10-13T07:09:31;18.85;;;7.10;;
19436;SDS011;9854;50.968;4.168;2023-10-13T07:11:59;20.15;;;7.72;;
19436;SDS011;9854;50.968;4.168;2023-10-13T07:14:31;20.63;;;6.63;;
19436;SDS011;9854;50.968;4.168;2023-10-13T07:17:05;31.67;;;7.55;;
19436;SDS011;9854;50.968;4.168;2023-10-13T07:19:33;22.45;;;6.93;;
19436;SDS011;9854;50.968;4.168;2023-10-13T07:22:00;14.95;;;6.28;;
19436;SDS011;9854;50.968;4.168;2023-10-13T07:24:45;19.73;;;6.78;;
19436;SDS011;9854;50.968;4.168;2023-10-13T07:27:20;17.92;;;7.18;;
19436;SDS011;9854;50.968;4.168;2023-10-13T07:29:56;26.25;;;6.20;;
19436;SDS011;9854;50.968;4.168;2023-10-13T07:32:38;23.83;;;7.45;;
19436;SDS011;9854;50.968;4.168;2023-10-13T07:35:10;20.45;;;6.53;;
19436;SDS011;9854;50.968;4.168;2023-10-13T07:37:45;14.73;;;5.95;;
19436;SDS011;9854;50.968;4.168;2023-10-13T07:40:17;19.83;;;6.43;;
19436;SDS011;9854;50.968;4.168;2023-10-13T07:42:52;20.40;;;5.93;;
19436;SDS011;9854;50.968;4.168;2023-10-13T07:45:26;17.70;;;6.53;;
19436;SDS011;9854;50.968;4.168;2023-10-13T07:48:01;19.23;;;6.03;;
19436;SDS011;9854;50.968;4.168;2023-10-13T07:50:37;17.10;;;6.60;;
19436;SDS011;9854;50.968;4.168;2023-10-13T07:53:06;20.38;;;6.47;;
19436;SDS011;9854;50.968;4.168;2023-10-13T07:55:52;19.77;;;6.85;;
19436;SDS011;9854;50.968;4.168;2023-10-13T07:58:23;16.83;;;6.85;;
19436;SDS011;9854;50.968;4.168;2023-10-13T08:00:52;15.60;;;6.28;;
19436;SDS011;9854;50.968;4.168;2023-10-13T08:03:24;22.73;;;6.90;;
19436;SDS011;9854;50.968;4.168;2023-10-13T08:05:57;24.30;;;7.65;;
19436;SDS011;9854;50.968;4.168;2023-10-13T08:08:26;19.25;;;6.25;;
19436;SDS011;9854;50.968;4.168;2023-10-13T08:11:00;17.33;;;6.70;;
19436;SDS011;9854;50.968;4.168;2023-10-13T08:13:34;16.23;;;6.57;;
19436;SDS011;9854;50.968;4.168;2023-10-13T08:16:02;22.10;;;6.80;;
19436;SDS011;9854;50.968;4.168;2023-10-13T08:18:34;20.55;;;6.63;;
19436;SDS011;9854;50.968;4.168;2023-10-13T08:21:04;16.52;;;5.97;;
19436;SDS011;9854;50.968;4.168;2023-10-13T08:23:30;26.55;;;7.20;;
19436;SDS011;9854;50.968;4.168;2023-10-13T08:26:23;17.58;;;6.25;;
19436;SDS011;9854;50.968;4.168;2023-10-13T08:29:13;18.33;;;6.90;;
19436;SDS011;9854;50.968;4.168;2023-10-13T08:31:58;15.88;;;6.45;;
19436;SDS011;9854;50.968;4.168;2023-10-13T08:34:39;18.83;;;6.35;;
19436;SDS011;9854;50.968;4.168;2023-10-13T08:37:08;17.13;;;6.60;;
19436;SDS011;9854;50.968;4.168;2023-10-13T08:39:54;17.73;;;6.00;;
19436;SDS011;9854;50.968;4.168;2023-10-13T08:42:29;24.38;;;6.97;;
19436;SDS011;9854;50.968;4.168;2023-10-13T08:47:47;26.25;;;6.55;;
19436;SDS011;9854;50.968;4.168;2023-10-13T08:50:32;24.77;;;6.63;;
19436;SDS011;9854;50.968;4.168;2023-10-13T08:58:44;14.05;;;6.63;;
19436;SDS011;9854;50.968;4.168;2023-10-13T09:04:08;18.45;;;6.53;;
19436;SDS011;9854;50.968;4.168;2023-10-13T09:06:44;18.48;;;6.53;;
19436;SDS011;9854;50.968;4.168;2023-10-13T09:09:30;25.20;;;6.95;;
19436;SDS011;9854;50.968;4.168;2023-10-13T09:12:16;24.17;;;6.72;;
19436;SDS011;9854;50.968;4.168;2023-10-13T09:14:43;13.95;;;5.68;;
19436;SDS011;9854;50.968;4.168;2023-10-13T09:17:22;26.48;;;5.97;;
19436;SDS011;9854;50.968;4.168;2023-10-13T09:19:58;20.00;;;6.47;;
19436;SDS011;9854;50.968;4.168;2023-10-13T09:22:45;24.65;;;6.43;;
19436;SDS011;9854;50.968;4.168;2023-10-13T09:25:30;16.60;;;5.70;;
19436;SDS011;9854;50.968;4.168;2023-10-13T09:28:03;16.48;;;6.15;;
19436;SDS011;9854;50.968;4.168;2023-10-13T09:30:47;25.60;;;6.70;;
19436;SDS011;9854;50.968;4.168;2023-10-13T09:33:13;18.70;;;6.57;;
19436;SDS011;9854;50.968;4.168;2023-10-13T09:35:46;19.40;;;6.13;;
19436;SDS011;9854;50.968;4.168;2023-10-13T09:38:15;18.38;;;6.15;;
19436;SDS011;9854;50.968;4.168;2023-10-13T09:40:42;21.90;;;7.25;;
19436;SDS011;9854;50.968;4.168;2023-10-13T09:43:26;14.48;;;6.45;;
19436;SDS011;9854;50.968;4.168;2023-10-13T09:45:59;18.98;;;6.18;;
19436;SDS011;9854;50.968;4.168;2023-10-13T09:48:36;31.10;;;7.10;;
19436;SDS011;9854;50.968;4.168;2023-10-13T09:51:13;15.20;;;6.03;;
19436;SDS011;9854;50.968;4.168;2023-10-13T09:53:47;22.33;;;6.85;;
19436;SDS011;9854;50.968;4.168;2023-10-13T09:56:21;28.20;;;6.95;;
19436;SDS011;9854;50.968;4.168;2023-10-13T09:58:59;20.30;;;6.63;;
19436;SDS011;9854;50.968;4.168;2023-10-13T10:01:36;23.05;;;7.65;;
19436;SDS011;9854;50.968;4.168;2023-10-13T10:04:16;23.25;;;6.68;;
19436;SDS011;9854;50.968;4.168;2023-10-13T10:06:56;21.73;;;7.00;;
19436;SDS011;9854;50.968;4.168;2023-10-13T10:09:27;22.33;;;7.50;;
19436;SDS011;9854;50.968;4.168;2023-10-13T10:17:38;19.15;;;6.68;;
19436;SDS011;9854;50.968;4.168;2023-10-13T10:20:06;29.27;;;6.57;;
19436;SDS011;9854;50.968;4.168;2023-10-13T10:22:39;23.52;;;6.47;;
19436;SDS011;9854;50.968;4.168;2023-10-13T10:25:09;28.27;;;7.47;;
19436;SDS011;9854;50.968;4.168;2023-10-13T10:27:56;21.58;;;6.60;;
19436;SDS011;9854;50.968;4.168;2023-10-13T10:30:33;25.38;;;7.38;;
19436;SDS011;9854;50.968;4.168;2023-10-13T10:33:00;17.77;;;6.97;;
19436;SDS011;9854;50.968;4.168;2023-10-13T10:35:37;26.48;;;7.45;;
19436;SDS011;9854;50.968;4.168;2023-10-13T10:38:11;22.33;;;7.95;;
19436;SDS011;9854;50.968;4.168;2023-10-13T10:43:40;24.08;;;7.05;;
19436;SDS011;9854;50.968;4.168;2023-10-13T10:46:12;20.95;;;7.15;;
19436;SDS011;9854;50.968;4.168;2023-10-13T10:48:42;19.40;;;6.93;;
19436;SDS011;9854;50.968;4.168;2023-10-13T10:51:08;25.52;;;7.38;;
19436;SDS011;9854;50.968;4.168;2023-10-13T10:53:51;25.25;;;6.72;;
19436;SDS011;9854;50.968;4.168;2023-10-13T10:56:26;23.35;;;7.68;;
19436;SDS011;9854;50.968;4.168;2023-10-13T10:59:00;33.95;;;7.53;;
19436;SDS011;9854;50.968;4.168;2023-10-13T11:01:27;24.80;;;6.53;;
19436;SDS011;9854;50.968;4.168;2023-10-13T11:04:14;23.45;;;7.32;;
19436;SDS011;9854;50.968;4.168;2023-10-13T11:07:01;23.13;;;7.43;;
19436;SDS011;9854;50.968;4.168;2023-10-13T11:12:08;27.70;;;7.63;;
19436;SDS011;9854;50.968;4.168;2023-10-13T11:14:44;24.40;;;7.10;;
19436;SDS011;9854;50.968;4.168;2023-10-13T11:17:19;31.60;;;7.35;;
19436;SDS011;9854;50.968;4.168;2023-10-13T11:19:49;36.47;;;7.78;;
19436;SDS011;9854;50.968;4.168;2023-10-13T11:22:16;30.42;;;7.63;;
19436;SDS011;9854;50.968;4.168;2023-10-13T11:24:58;36.22;;;7.50;;
19436;SDS011;9854;50.968;4.168;2023-10-13T11:27:32;23.35;;;6.75;;
19436;SDS011;9854;50.968;4.168;2023-10-13T11:30:21;34.03;;;7.80;;
19436;SDS011;9854;50.968;4.168;2023-10-13T11:33:09;37.78;;;7.85;;
19436;SDS011;9854;50.968;4.168;2023-10-13T11:35:39;27.05;;;7.35;;
19436;SDS011;9854;50.968;4.168;2023-10-13T11:38:19;23.10;;;7.38;;
19436;SDS011;9854;50.968;4.168;2023-10-13T11:43:37;24.58;;;7.35;;
19436;SDS011;9854;50.968;4.168;2023-10-13T11:46:06;20.40;;;6.75;;
19436;SDS011;9854;50.968;4.168;2023-10-13T11:48:44;16.27;;;6.40;;
19436;SDS011;9854;50.968;4.168;2023-10-13T11:51:12;29.30;;;6.72;;
19436;SDS011;9854;50.968;4.168;2023-10-13T11:53:57;28.00;;;7.93;;
19436;SDS011;9854;50.968;4.168;2023-10-13T11:56:23;21.77;;;7.07;;
19436;SDS011;9854;50.968;4.168;2023-10-13T11:58:50;26.20;;;7.45;;
19436;SDS011;9854;50.968;4.168;2023-10-13T12:01:16;34.60;;;7.63;;
19436;SDS011;9854;50.968;4.168;2023-10-13T12:03:43;21.35;;;6.50;;
19436;SDS011;9854;50.968;4.168;2023-10-13T12:06:31;24.73;;;6.78;;
19436;SDS011;9854;50.968;4.168;2023-10-13T12:09:10;17.55;;;6.65;;
19436;SDS011;9854;50.968;4.168;2023-10-13T12:11:45;24.92;;;6.93;;
19436;SDS011;9854;50.968;4.168;2023-10-13T12:14:12;21.13;;;6.28;;
19436;SDS011;9854;50.968;4.168;2023-10-13T12:16:47;30.38;;;7.18;;
19436;SDS011;9854;50.968;4.168;2023-10-13T12:19:17;28.20;;;6.80;;
19436;SDS011;9854;50.968;4.168;2023-10-13T12:21:48;21.17;;;7.40;;
19436;SDS011;9854;50.968;4.168;2023-10-13T12:24:29;22.65;;;6.47;;
19436;SDS011;9854;50.968;4.168;2023-10-13T12:27:03;19.98;;;7.07;;
19436;SDS011;9854;50.968;4.168;2023-10-13T12:29:44;29.30;;;7.38;;
19436;SDS011;9854;50.968;4.168;2023-10-13T12:32:14;23.05;;;6.40;;
19436;SDS011;9854;50.968;4.168;2023-10-13T12:34:45;18.02;;;6.28;;
19436;SDS011;9854;50.968;4.168;2023-10-13T12:37:27;23.73;;;6.47;;
19436;SDS011;9854;50.968;4.168;2023-10-13T12:40:18;19.85;;;5.72;;
19436;SDS011;9854;50.968;4.168;2023-10-13T12:43:03;18.33;;;6.05;;
19436;SDS011;9854;50.968;4.168;2023-10-13T12:45:49;24.10;;;6.78;;
19436;SDS011;9854;50.968;4.168;2023-10-13T12:48:34;21.67;;;6.30;;
19436;SDS011;9854;50.968;4.168;2023-10-13T12:51:20;28.15;;;5.75;;
19436;SDS011;9854;50.968;4.168;2023-10-13T12:53:49;26.08;;;6.25;;
19436;SDS011;9854;50.968;4.168;2023-10-13T12:56:17;26.77;;;6.50;;
19436;SDS011;9854;50.968;4.168;2023-10-13T12:58:50;20.40;;;5.60;;
19436;SDS011;9854;50.968;4.168;2023-10-13T13:01:19;22.85;;;5.68;;
19436;SDS011;9854;50.968;4.168;2023-10-13T13:03:49;24.00;;;6.60;;
19436;SDS011;9854;50.968;4.168;2023-10-13T13:06:16;27.92;;;6.40;;
19436;SDS011;9854;50.968;4.168;2023-10-13T13:08:52;25.52;;;6.47;;
19436;SDS011;9854;50.968;4.168;2023-10-13T13:11:18;20.20;;;6.65;;
19436;SDS011;9854;50.968;4.168;2023-10-13T13:13:45;16.67;;;5.88;;
19436;SDS011;9854;50.968;4.168;2023-10-13T13:16:14;24.13;;;6.45;;
19436;SDS011;9854;50.968;4.168;2023-10-13T13:18:42;19.42;;;5.80;;
19436;SDS011;9854;50.968;4.168;2023-10-13T13:21:09;13.73;;;5.18;;
19436;SDS011;9854;50.968;4.168;2023-10-13T13:23:37;16.15;;;5.78;;
19436;SDS011;9854;50.968;4.168;2023-10-13T13:26:05;19.63;;;5.57;;
19436;SDS011;9854;50.968;4.168;2023-10-13T13:28:41;19.35;;;6.30;;
19436;SDS011;9854;50.968;4.168;2023-10-13T13:31:10;18.52;;;6.07;;
19436;SDS011;9854;50.968;4.168;2023-10-13T13:33:40;18.58;;;6.65;;
19436;SDS011;9854;50.968;4.168;2023-10-13T13:36:08;16.70;;;6.43;;
19436;SDS011;9854;50.968;4.168;2023-10-13T13:38:41;20.08;;;5.95;;
19436;SDS011;9854;50.968;4.168;2023-10-13T13:41:13;12.50;;;5.85;;
19436;SDS011;9854;50.968;4.168;2023-10-13T13:43:43;16.10;;;5.80;;
19436;SDS011;9854;50.968;4.168;2023-10-13T13:46:18;14.20;;;5.72;;
19436;SDS011;9854;50.968;4.168;2023-10-13T13:48:50;22.13;;;6.80;;
19436;SDS011;9854;50.968;4.168;2023-10-13T13:51:32;23.98;;;5.70;;
19436;SDS011;9854;50.968;4.168;2023-10-13T13:53:58;11.07;;;5.78;;
19436;SDS011;9854;50.968;4.168;2023-10-13T13:56:25;11.65;;;5.63;;
19436;SDS011;9854;50.968;4.168;2023-10-13T13:58:52;16.98;;;6.00;;
19436;SDS011;9854;50.968;4.168;2023-10-13T14:01:18;18.35;;;6.32;;
19436;SDS011;9854;50.968;4.168;2023-10-13T14:03:47;20.05;;;5.25;;
19436;SDS011;9854;50.968;4.168;2023-10-13T14:06:19;24.48;;;5.38;;
19436;SDS011;9854;50.968;4.168;2023-10-13T14:08:49;18.48;;;5.95;;
19436;SDS011;9854;50.968;4.168;2023-10-13T14:11:22;18.42;;;5.80;;
19436;SDS011;9854;50.968;4.168;2023-10-13T14:14:14;14.93;;;5.60;;
19436;SDS011;9854;50.968;4.168;2023-10-13T14:16:50;15.88;;;5.60;;
19436;SDS011;9854;50.968;4.168;2023-10-13T14:19:16;16.13;;;6.18;;
19436;SDS011;9854;50.968;4.168;2023-10-13T14:24:21;14.40;;;5.28;;
19436;SDS011;9854;50.968;4.168;2023-10-13T14:26:56;21.65;;;6.32;;
19436;SDS011;9854;50.968;4.168;2023-10-13T14:29:44;22.33;;;6.90;;
19436;SDS011;9854;50.968;4.168;2023-10-13T14:32:10;16.98;;;6.75;;
19436;SDS011;9854;50.968;4.168;2023-10-13T14:34:46;16.30;;;5.78;;
19436;SDS011;9854;50.968;4.168;2023-10-13T14:37:17;16.50;;;6.22;;
19436;SDS011;9854;50.968;4.168;2023-10-13T14:39:51;12.68;;;5.53;;
19436;SDS011;9854;50.968;4.168;2023-10-13T14:42:26;24.40;;;5.97;;
19436;SDS011;9854;50.968;4.168;2023-10-13T14:44:52;21.67;;;6.53;;
19436;SDS011;9854;50.968;4.168;2023-10-13T14:47:24;18.63;;;6.00;;
19436;SDS011;9854;50.968;4.168;2023-10-13T14:49:51;18.50;;;7.10;;
19436;SDS011;9854;50.968;4.168;2023-10-13T14:52:19;15.30;;;5.72;;
19436;SDS011;9854;50.968;4.168;2023-10-13T14:54:48;19.73;;;6.00;;
19436;SDS011;9854;50.968;4.168;2023-10-13T14:57:20;16.27;;;6.40;;
19436;SDS011;9854;50.968;4.168;2023-10-13T14:59:52;14.55;;;6.28;;
19436;SDS011;9854;50.968;4.168;2023-10-13T15:02:18;19.00;;;6.25;;
19436;SDS011;9854;50.968;4.168;2023-10-13T15:04:44;16.25;;;6.07;;
19436;SDS011;9854;50.968;4.168;2023-10-13T15:07:13;20.67;;;6.32;;
19436;SDS011;9854;50.968;4.168;2023-10-13T15:09:40;22.80;;;6.57;;
19436;SDS011;9854;50.968;4.168;2023-10-13T15:12:07;15.02;;;6.53;;
19436;SDS011;9854;50.968;4.168;2023-10-13T15:14:35;19.15;;;6.10;;
19436;SDS011;9854;50.968;4.168;2023-10-13T15:17:02;17.23;;;6.15;;
19436;SDS011;9854;50.968;4.168;2023-10-13T15:19:31;13.18;;;5.78;;
19436;SDS011;9854;50.968;4.168;2023-10-13T15:22:01;22.13;;;6.05;;
19436;SDS011;9854;50.968;4.168;2023-10-13T15:24:27;13.52;;;6.15;;
19436;SDS011;9854;50.968;4.168;2023-10-13T15:26:53;22.02;;;7.18;;
19436;SDS011;9854;50.968;4.168;2023-10-13T15:29:26;12.68;;;6.43;;
19436;SDS011;9854;50.968;4.168;2023-10-13T15:32:00;14.15;;;6.45;;
19436;SDS011;9854;50.968;4.168;2023-10-13T15:34:26;13.40;;;6.03;;
19436;SDS011;9854;50.968;4.168;2023-10-13T15:36:53;24.58;;;6.32;;
19436;SDS011;9854;50.968;4.168;2023-10-13T15:39:20;19.88;;;5.88;;
19436;SDS011;9854;50.968;4.168;2023-10-13T15:41:52;18.23;;;6.22;;
19436;SDS011;9854;50.968;4.168;2023-10-13T15:44:18;19.92;;;6.72;;
19436;SDS011;9854;50.968;4.168;2023-10-13T15:46:52;21.30;;;6.22;;
19436;SDS011;9854;50.968;4.168;2023-10-13T15:49:18;21.25;;;5.90;;
19436;SDS011;9854;50.968;4.168;2023-10-13T15:51:44;12.70;;;5.68;;
19436;SDS011;9854;50.968;4.168;2023-10-13T15:54:10;16.70;;;6.75;;
19436;SDS011;9854;50.968;4.168;2023-10-13T15:56:45;17.63;;;6.00;;
19436;SDS011;9854;50.968;4.168;2023-10-13T15:59:12;24.98;;;7.43;;